createdAt,value
2019-05-14T00:00:05.782Z,2.03
2019-05-14T00:02:36.814Z,1.80
2019-05-14T00:05:07.796Z,2.00
2019-05-14T00:07:38.510Z,1.90
2019-05-14T00:10:11.796Z,2.17
2019-05-14T00:12:42.156Z,2.83
2019-05-14T00:15:13.094Z,2.33
2019-05-14T00:17:43.877Z,2.00
2019-05-14T00:20:14.999Z,2.10
2019-05-14T00:22:45.766Z,2.60
2019-05-14T00:25:16.553Z,2.27
2019-05-14T00:27:47.363Z,1.80
2019-05-14T00:30:18.278Z,1.70
2019-05-14T00:32:49.068Z,1.80
2019-05-14T00:35:21.482Z,2.00
2019-05-14T00:37:52.352Z,2.00
2019-05-14T00:40:23.188Z,1.90
2019-05-14T00:42:54.034Z,1.90
2019-05-14T00:45:24.867Z,1.90
2019-05-14T00:47:55.539Z,2.10
2019-05-14T00:50:26.256Z,2.27
2019-05-14T00:52:57.978Z,2.57
2019-05-14T00:55:28.668Z,2.30
2019-05-14T00:57:59.409Z,2.17
2019-05-14T01:00:31.351Z,1.93
2019-05-14T01:03:02.271Z,2.00
2019-05-14T01:05:33.089Z,2.30
2019-05-14T01:08:03.779Z,2.87
2019-05-14T01:10:34.526Z,2.40
2019-05-14T01:13:05.356Z,2.50
2019-05-14T01:15:36.379Z,2.93
2019-05-14T01:18:07.466Z,2.47
2019-05-14T01:20:38.289Z,2.10
2019-05-14T01:23:11.334Z,2.20
2019-05-14T01:25:42.182Z,2.13
2019-05-14T01:28:13.042Z,1.70
2019-05-14T01:30:43.859Z,2.20
2019-05-14T01:33:14.632Z,2.23
2019-05-14T01:35:45.430Z,2.20
2019-05-14T01:38:16.303Z,2.27
2019-05-14T01:40:47.170Z,2.20
2019-05-14T01:43:17.888Z,2.13
2019-05-14T01:45:48.950Z,1.97
2019-05-14T01:48:21.791Z,1.90
2019-05-14T01:50:52.396Z,1.90
2019-05-14T01:53:24.444Z,1.93
2019-05-14T01:55:55.235Z,1.80
2019-05-14T01:58:25.944Z,1.80
2019-05-14T02:00:56.732Z,1.70
2019-05-14T02:03:27.377Z,1.70
2019-05-14T02:05:58.222Z,1.73
2019-05-14T02:08:31.963Z,1.70
2019-05-14T02:11:02.155Z,1.70
2019-05-14T02:13:32.853Z,1.80
2019-05-14T02:16:03.572Z,2.33
2019-05-14T02:18:34.717Z,1.80
2019-05-14T02:21:05.616Z,1.70
2019-05-14T02:23:36.418Z,1.77
2019-05-14T02:26:07.167Z,1.53
2019-05-14T02:28:37.858Z,1.80
2019-05-14T02:31:09.375Z,1.80
2019-05-14T02:33:40.340Z,1.53
2019-05-14T02:36:11.380Z,1.83
2019-05-14T02:38:42.156Z,1.77
2019-05-14T02:41:12.837Z,1.90
2019-05-14T02:43:43.772Z,2.00
2019-05-14T02:46:17.423Z,1.53
2019-05-14T02:48:49.166Z,1.67
2019-05-14T02:51:20.225Z,1.80
2019-05-14T02:53:51.287Z,1.93
2019-05-14T02:56:22.965Z,1.60
2019-05-14T02:58:54.266Z,1.90
2019-05-14T03:01:25.244Z,1.70
2019-05-14T03:03:59.650Z,2.30
2019-05-14T03:06:29.966Z,1.97
2019-05-14T03:09:01.182Z,2.10
2019-05-14T03:11:31.880Z,1.90
2019-05-14T03:14:02.875Z,2.03
2019-05-14T03:16:35.862Z,2.00
2019-05-14T03:19:09.726Z,1.87
2019-05-14T03:21:39.892Z,1.90
2019-05-14T03:24:10.914Z,1.90
2019-05-14T03:26:42.766Z,1.63
2019-05-14T03:29:13.700Z,2.03
2019-05-14T03:31:45.025Z,1.90
2019-05-14T03:34:21.445Z,1.53
2019-05-14T03:36:52.552Z,2.00
2019-05-14T03:39:21.058Z,2.10
2019-05-14T03:41:52.071Z,2.10
2019-05-14T03:44:23.175Z,2.00
2019-05-14T03:46:56.007Z,2.40
2019-05-14T03:49:28.886Z,2.07
2019-05-14T03:52:00.501Z,2.30
2019-05-14T03:54:31.747Z,2.40
2019-05-14T03:57:02.540Z,2.20
2019-05-14T03:59:34.369Z,1.93
2019-05-14T04:02:05.471Z,2.73
2019-05-14T04:04:39.374Z,2.10
2019-05-14T04:07:10.958Z,2.40
2019-05-14T04:09:43.122Z,2.40
2019-05-14T04:12:14.862Z,2.40
2019-05-14T04:14:50.210Z,2.40
2019-05-14T04:17:32.154Z,2.30
2019-05-14T04:19:59.967Z,2.40
2019-05-14T04:22:32.751Z,2.10
2019-05-14T04:25:10.595Z,2.20
2019-05-14T04:27:41.499Z,2.20
2019-05-14T04:30:13.994Z,2.00
2019-05-14T04:32:44.963Z,2.30
2019-05-14T04:35:15.832Z,2.20
2019-05-14T04:37:49.609Z,2.00
2019-05-14T04:40:19.409Z,2.13
2019-05-14T04:42:50.689Z,2.50
2019-05-14T04:45:21.524Z,2.63
2019-05-14T04:47:52.240Z,2.50
2019-05-14T04:50:25.588Z,2.37
2019-05-14T04:52:59.617Z,2.80
2019-05-14T04:55:29.714Z,2.23
2019-05-14T04:58:00.833Z,2.70
2019-05-14T05:00:31.598Z,3.00
2019-05-14T05:03:02.338Z,3.90
2019-05-14T05:05:33.184Z,4.73
2019-05-14T05:08:03.893Z,5.70
2019-05-14T05:10:34.623Z,5.53
2019-05-14T05:13:05.421Z,3.23
2019-05-14T05:15:36.226Z,2.80
2019-05-14T05:18:09.493Z,2.90
2019-05-14T05:20:40.255Z,2.57
2019-05-14T05:23:11.042Z,2.40
2019-05-14T05:25:41.867Z,2.80
2019-05-14T05:28:12.949Z,2.50
2019-05-14T05:30:43.765Z,2.60
2019-05-14T05:33:15.018Z,2.90
2019-05-14T05:35:48.689Z,2.67
2019-05-14T05:38:19.389Z,2.77
2019-05-14T05:40:50.330Z,2.83
2019-05-14T05:43:21.159Z,2.57
2019-05-14T05:45:52.043Z,2.53
2019-05-14T05:48:22.977Z,2.60
2019-05-14T05:50:53.705Z,2.40
2019-05-14T05:53:24.602Z,2.47
2019-05-14T05:55:55.455Z,2.20
2019-05-14T05:58:29.600Z,2.37
2019-05-14T06:00:59.383Z,2.27
2019-05-14T06:03:33.308Z,2.70
2019-05-14T06:06:04.493Z,2.50
2019-05-14T06:08:35.322Z,2.40
2019-05-14T06:11:08.185Z,2.47
2019-05-14T06:13:39.289Z,2.57
2019-05-14T06:16:10.166Z,2.20
2019-05-14T06:18:40.870Z,2.40
2019-05-14T06:21:11.595Z,2.50
2019-05-14T06:23:42.492Z,2.70
2019-05-14T06:26:13.469Z,2.40
2019-05-14T06:28:44.307Z,2.50
2019-05-14T06:31:15.590Z,2.57
2019-05-14T06:33:48.598Z,2.20
2019-05-14T06:36:19.856Z,2.37
2019-05-14T06:38:51.004Z,2.20
2019-05-14T06:41:22.358Z,2.40
2019-05-14T06:43:53.154Z,2.30
2019-05-14T06:46:23.932Z,2.30
2019-05-14T06:48:54.683Z,2.53
2019-05-14T06:51:25.767Z,2.45
2019-05-14T06:53:58.752Z,2.10
2019-05-14T06:56:30.066Z,2.20
2019-05-14T06:59:00.881Z,2.17
2019-05-14T07:01:31.617Z,2.10
2019-05-14T07:04:02.418Z,2.42
2019-05-14T07:06:33.295Z,2.30
2019-05-14T07:09:08.075Z,2.30
2019-05-14T07:11:38.834Z,2.00
2019-05-14T07:14:11.648Z,2.20
2019-05-14T07:16:42.652Z,2.83
2019-05-14T07:19:15.813Z,2.23
2019-05-14T07:21:45.818Z,2.07
2019-05-14T07:24:19.283Z,2.10
2019-05-14T07:26:51.998Z,2.00
2019-05-14T07:29:22.690Z,2.10
2019-05-14T07:31:53.459Z,1.92
2019-05-14T07:34:24.276Z,1.87
2019-05-14T07:36:55.123Z,1.87
2019-05-14T07:39:25.882Z,1.85
2019-05-14T07:41:59.002Z,2.00
2019-05-14T07:44:31.657Z,1.50
2019-05-14T07:47:02.370Z,1.53
2019-05-14T07:49:33.388Z,1.70
2019-05-14T07:52:04.256Z,1.50
2019-05-14T07:54:35.189Z,1.60
2019-05-14T07:57:08.441Z,1.55
2019-05-14T07:59:38.459Z,1.70
2019-05-14T08:02:12.745Z,1.65
2019-05-14T08:04:42.965Z,1.12
2019-05-14T08:07:14.963Z,1.52
2019-05-14T08:09:47.798Z,1.60
2019-05-14T08:12:19.269Z,1.60
2019-05-14T08:15:14.059Z,1.20
2019-05-14T08:17:22.627Z,1.40
2019-05-14T08:19:53.620Z,1.32
2019-05-14T08:22:24.420Z,1.45
2019-05-14T08:24:55.545Z,1.30
2019-05-14T08:27:30.930Z,1.62
2019-05-14T08:29:59.063Z,1.45
2019-05-14T08:32:29.928Z,1.30
2019-05-14T08:35:00.937Z,1.77
2019-05-14T08:37:32.032Z,1.30
2019-05-14T08:40:03.008Z,1.10
2019-05-14T08:42:34.324Z,1.37
2019-05-14T08:45:10.484Z,1.95
2019-05-14T08:47:39.219Z,1.70
2019-05-14T08:50:10.410Z,1.50
2019-05-14T08:52:41.339Z,1.20
2019-05-14T08:55:14.016Z,1.40
2019-05-14T08:57:44.878Z,1.40
2019-05-14T09:00:18.164Z,1.40
2019-05-14T09:02:48.721Z,1.40
2019-05-14T09:05:19.538Z,1.30
2019-05-14T09:07:50.243Z,1.20
2019-05-14T09:10:21.068Z,1.60
2019-05-14T09:12:51.892Z,1.10
2019-05-14T09:15:22.661Z,1.40
2019-05-14T09:17:53.565Z,1.02
2019-05-14T09:20:24.709Z,1.20
2019-05-14T09:22:55.496Z,1.20
2019-05-14T09:25:26.186Z,1.60
2019-05-14T09:27:58.643Z,1.17
2019-05-14T09:30:29.615Z,2.52
2019-05-14T09:33:00.816Z,1.40
2019-05-14T09:35:31.569Z,1.35
2019-05-14T09:38:02.597Z,1.15
2019-05-14T09:40:33.500Z,1.20
2019-05-14T09:43:04.305Z,1.00
2019-05-14T09:45:35.085Z,1.27
2019-05-14T09:48:05.940Z,1.10
2019-05-14T09:50:38.368Z,1.12
2019-05-14T09:53:09.864Z,1.15
2019-05-14T09:55:41.002Z,1.32
2019-05-14T09:58:11.832Z,1.05
2019-05-14T10:00:42.572Z,1.35
2019-05-14T10:03:13.671Z,1.05
2019-05-14T10:05:44.488Z,1.50
2019-05-14T10:08:15.401Z,1.40
2019-05-14T10:10:48.647Z,1.10
2019-05-14T10:13:18.848Z,0.88
2019-05-14T10:15:49.612Z,1.20
2019-05-14T10:18:20.464Z,1.10
2019-05-14T10:20:51.378Z,1.15
2019-05-14T10:23:22.328Z,1.10
2019-05-14T10:25:53.061Z,1.35
2019-05-14T10:28:23.942Z,1.10
2019-05-14T10:30:54.731Z,0.88
2019-05-14T10:33:28.596Z,1.10
2019-05-14T10:35:59.159Z,1.25
2019-05-14T10:38:29.994Z,1.27
2019-05-14T10:41:01.501Z,1.10
2019-05-14T10:43:33.597Z,1.40
2019-05-14T10:46:04.441Z,1.30
2019-05-14T10:48:35.322Z,1.15
2019-05-14T10:51:06.187Z,1.17
2019-05-14T10:53:36.930Z,1.00
2019-05-14T10:56:09.678Z,1.02
2019-05-14T10:58:40.194Z,0.90
2019-05-14T11:01:11.528Z,0.80
2019-05-14T11:03:42.613Z,1.32
2019-05-14T11:06:13.462Z,1.02
2019-05-14T11:08:44.262Z,1.20
2019-05-14T11:11:15.363Z,0.90
2019-05-14T11:13:46.144Z,0.78
2019-05-14T11:16:19.079Z,1.10
2019-05-14T11:18:50.078Z,1.20
2019-05-14T11:21:26.499Z,1.22
2019-05-14T11:23:53.463Z,1.10
2019-05-14T11:26:25.024Z,1.20
2019-05-14T11:28:58.358Z,1.00
2019-05-14T11:31:29.929Z,1.15
2019-05-14T11:34:00.902Z,1.00
2019-05-14T11:36:31.680Z,1.00
2019-05-14T11:39:03.957Z,1.10
2019-05-14T11:41:35.122Z,1.22
2019-05-14T11:44:08.926Z,1.10
2019-05-14T11:46:47.850Z,1.12
2019-05-14T11:49:11.154Z,1.20
2019-05-14T11:51:59.503Z,0.98
2019-05-14T11:54:14.213Z,1.20
2019-05-14T11:56:45.217Z,0.90
2019-05-14T11:59:18.776Z,0.98
2019-05-14T12:01:49.355Z,1.07
2019-05-14T12:04:20.687Z,0.88
2019-05-14T12:06:51.397Z,1.30
2019-05-14T12:09:22.195Z,1.10
2019-05-14T12:11:53.101Z,1.00
2019-05-14T12:14:24.790Z,1.27
2019-05-14T12:16:55.551Z,1.02
2019-05-14T12:19:28.411Z,0.93
2019-05-14T12:22:10.409Z,1.10
2019-05-14T12:24:38.757Z,1.85
2019-05-14T12:27:09.244Z,0.80
2019-05-14T12:29:40.303Z,1.40
2019-05-14T12:32:13.067Z,1.10
2019-05-14T12:34:43.637Z,1.40
2019-05-14T12:37:14.463Z,1.10
2019-05-14T12:39:45.244Z,1.35
2019-05-14T12:42:19.052Z,1.30
2019-05-14T12:44:48.657Z,0.95
2019-05-14T12:47:19.844Z,0.88
2019-05-14T12:49:50.977Z,1.05
2019-05-14T12:52:25.733Z,0.90
2019-05-14T12:54:54.215Z,0.90
2019-05-14T12:57:25.435Z,0.90
2019-05-14T12:59:58.234Z,1.02
2019-05-14T13:02:29.721Z,0.90
2019-05-14T13:05:00.568Z,1.25
2019-05-14T13:07:31.345Z,1.27
2019-05-14T13:10:02.192Z,0.93
2019-05-14T13:12:32.921Z,1.10
2019-05-14T13:15:03.880Z,0.95
2019-05-14T13:17:34.636Z,0.72
2019-05-14T13:20:05.756Z,1.00
2019-05-14T13:22:42.390Z,0.85
2019-05-14T13:25:10.539Z,0.62
2019-05-14T13:27:41.592Z,0.82
2019-05-14T13:30:12.623Z,1.10
2019-05-14T13:32:43.558Z,1.07
2019-05-14T13:35:14.899Z,0.90
2019-05-14T13:37:48.823Z,0.95
2019-05-14T13:40:21.308Z,0.80
2019-05-14T13:42:51.315Z,0.90
2019-05-14T13:45:22.268Z,1.00
2019-05-14T13:47:53.059Z,0.93
2019-05-14T13:50:23.999Z,0.82
2019-05-14T13:53:03.026Z,1.02
2019-05-14T13:55:30.410Z,0.98
2019-05-14T13:58:00.329Z,1.07
2019-05-14T14:00:31.693Z,1.00
2019-05-14T14:03:02.492Z,0.90
2019-05-14T14:05:33.308Z,1.12
2019-05-14T14:08:04.356Z,1.55
2019-05-14T14:10:36.723Z,1.00
2019-05-14T14:13:11.315Z,1.07
2019-05-14T14:15:40.669Z,0.95
2019-05-14T14:18:11.442Z,1.20
2019-05-14T14:20:42.166Z,1.00
2019-05-14T14:23:21.972Z,1.00
2019-05-14T14:25:45.463Z,0.90
2019-05-14T14:28:16.500Z,1.10
2019-05-14T14:30:49.155Z,1.00
2019-05-14T14:33:19.791Z,1.15
2019-05-14T14:35:50.791Z,1.00
2019-05-14T14:38:21.656Z,0.80
2019-05-14T14:40:53.910Z,0.65
2019-05-14T14:43:24.610Z,0.90
2019-05-14T14:45:55.507Z,0.85
2019-05-14T14:48:26.185Z,1.00
2019-05-14T14:50:58.655Z,1.52
2019-05-14T14:53:43.035Z,0.90
2019-05-14T14:56:01.924Z,2.15
2019-05-14T14:58:32.649Z,1.00
2019-05-14T15:01:03.525Z,1.10
2019-05-14T15:03:34.537Z,0.95
2019-05-14T15:06:05.648Z,0.90
2019-05-14T15:08:38.867Z,0.98
2019-05-14T15:11:09.267Z,0.90
2019-05-14T15:13:40.065Z,1.00
2019-05-14T15:16:13.560Z,0.85
2019-05-14T15:18:43.422Z,0.70
2019-05-14T15:21:14.338Z,0.90
2019-05-14T15:24:01.765Z,1.07
2019-05-14T15:26:19.351Z,1.10
2019-05-14T15:28:49.894Z,1.02
2019-05-14T15:31:22.045Z,1.15
2019-05-14T15:33:52.830Z,1.20
2019-05-14T15:36:23.718Z,1.00
2019-05-14T15:38:54.498Z,1.10
2019-05-14T15:41:25.230Z,1.00
2019-05-14T15:43:55.961Z,1.10
2019-05-14T15:46:26.663Z,1.57
2019-05-14T15:48:59.483Z,0.90
2019-05-14T15:51:30.380Z,0.70
2019-05-14T15:54:15.559Z,0.90
2019-05-14T15:56:33.590Z,0.95
2019-05-14T15:59:04.475Z,1.15
2019-05-14T16:01:35.472Z,0.90
2019-05-14T16:04:11.204Z,1.12
2019-05-14T16:06:38.830Z,0.90
2019-05-14T16:09:09.692Z,0.80
2019-05-14T16:11:40.433Z,1.10
2019-05-14T16:14:11.208Z,1.00
2019-05-14T16:16:43.232Z,0.90
2019-05-14T16:19:13.945Z,1.00
2019-05-14T16:21:44.861Z,0.78
2019-05-14T16:24:19.278Z,0.82
2019-05-14T16:26:49.090Z,0.78
2019-05-14T16:29:36.807Z,0.82
2019-05-14T16:31:52.490Z,1.10
2019-05-14T16:34:23.248Z,1.00
2019-05-14T16:36:54.276Z,0.82
2019-05-14T16:39:25.274Z,0.90
2019-05-14T16:41:58.137Z,0.80
2019-05-14T16:44:28.717Z,0.82
2019-05-14T16:46:59.510Z,0.90
2019-05-14T16:49:33.857Z,0.90
2019-05-14T16:52:03.808Z,1.00
2019-05-14T16:54:35.281Z,1.10
2019-05-14T16:57:10.676Z,0.80
2019-05-14T16:59:40.172Z,1.00
2019-05-14T17:02:11.071Z,1.00
2019-05-14T17:04:41.893Z,1.00
2019-05-14T17:07:12.682Z,1.00
2019-05-14T17:09:43.566Z,1.05
2019-05-14T17:12:14.260Z,0.90
2019-05-14T17:14:46.088Z,0.80
2019-05-14T17:17:16.831Z,0.88
2019-05-14T17:19:48.078Z,0.90
2019-05-14T17:22:28.670Z,1.12
2019-05-14T17:24:51.956Z,1.10
2019-05-14T17:27:22.749Z,1.30
2019-05-14T17:29:53.888Z,1.10
2019-05-14T17:32:25.086Z,1.05
2019-05-14T17:34:55.853Z,0.80
2019-05-14T17:37:28.596Z,0.90
2019-05-14T17:39:59.496Z,1.20
2019-05-14T17:42:30.249Z,1.47
2019-05-14T17:45:01.027Z,1.00
2019-05-14T17:47:31.864Z,1.10
2019-05-14T17:50:02.729Z,0.98
2019-05-14T17:52:33.803Z,0.83
2019-05-14T17:55:05.096Z,0.90
2019-05-14T17:57:44.292Z,0.78
2019-05-14T18:00:11.121Z,0.80
2019-05-14T18:02:42.443Z,0.90
2019-05-14T18:05:13.501Z,0.90
2019-05-14T18:07:44.437Z,1.20
2019-05-14T18:10:15.481Z,0.90
2019-05-14T18:12:48.285Z,1.00
2019-05-14T18:15:18.997Z,1.05
2019-05-14T18:17:49.840Z,1.00
2019-05-14T18:20:20.932Z,1.03
2019-05-14T18:22:51.778Z,1.10
2019-05-14T18:25:22.657Z,1.13
2019-05-14T18:27:53.545Z,0.90
2019-05-14T18:30:24.306Z,1.00
2019-05-14T18:32:55.185Z,1.30
2019-05-14T18:35:26.224Z,1.00
2019-05-14T18:37:57.778Z,1.10
2019-05-14T18:40:28.957Z,1.07
2019-05-14T18:43:00.226Z,1.20
2019-05-14T18:45:31.621Z,1.20
2019-05-14T18:48:02.531Z,1.17
2019-05-14T18:50:33.725Z,1.20
2019-05-14T18:53:04.874Z,1.20
2019-05-14T18:55:38.404Z,1.10
2019-05-14T18:58:09.087Z,1.00
2019-05-14T19:00:40.153Z,1.27
2019-05-14T19:03:12.094Z,1.10
2019-05-14T19:05:43.087Z,1.17
2019-05-14T19:08:13.969Z,1.03
2019-05-14T19:10:44.963Z,1.10
2019-05-14T19:13:16.020Z,0.90
2019-05-14T19:15:48.321Z,0.90
2019-05-14T19:18:20.577Z,1.00
2019-05-14T19:20:51.560Z,0.97
2019-05-14T19:23:22.683Z,0.77
2019-05-14T19:25:53.620Z,1.00
2019-05-14T19:28:24.829Z,1.00
2019-05-14T19:30:55.766Z,1.10
2019-05-14T19:33:28.716Z,1.33
2019-05-14T19:35:59.337Z,1.10
2019-05-14T19:38:30.750Z,0.90
2019-05-14T19:41:02.863Z,1.10
2019-05-14T19:43:33.647Z,1.07
2019-05-14T19:46:04.697Z,1.00
2019-05-14T19:48:35.644Z,1.20
2019-05-14T19:51:08.298Z,1.00
2019-05-14T19:53:40.634Z,1.30
2019-05-14T19:56:11.794Z,1.00
2019-05-14T19:58:42.635Z,1.20
2019-05-14T20:01:13.534Z,1.13
2019-05-14T20:03:44.627Z,1.30
2019-05-14T20:06:15.444Z,1.30
2019-05-14T20:08:48.251Z,0.93
2019-05-14T20:11:19.402Z,1.00
2019-05-14T20:13:51.331Z,0.70
2019-05-14T20:16:22.582Z,0.80
2019-05-14T20:18:53.344Z,0.93
2019-05-14T20:21:24.662Z,0.77
2019-05-14T20:23:55.541Z,0.97
2019-05-14T20:26:28.150Z,0.73
2019-05-14T20:28:59.182Z,1.07
2019-05-14T20:31:30.256Z,0.70
2019-05-14T20:34:00.990Z,1.00
2019-05-14T20:36:31.823Z,0.80
2019-05-14T20:39:02.901Z,1.10
2019-05-14T20:41:33.976Z,1.10
2019-05-14T20:44:04.837Z,1.00
2019-05-14T20:46:38.069Z,1.17
2019-05-14T20:49:08.921Z,1.23
2019-05-14T20:51:39.804Z,1.07
2019-05-14T20:54:10.575Z,1.00
2019-05-14T20:56:41.551Z,0.90
2019-05-14T20:59:12.262Z,0.90
2019-05-14T21:01:43.238Z,0.80
2019-05-14T21:04:13.968Z,1.00
2019-05-14T21:06:44.764Z,0.80
2019-05-14T21:09:15.460Z,0.90
2019-05-14T21:11:49.032Z,0.90
2019-05-14T21:14:19.160Z,1.00
2019-05-14T21:16:49.877Z,0.97
2019-05-14T21:19:20.565Z,1.10
2019-05-14T21:21:51.343Z,1.00
2019-05-14T21:24:22.215Z,1.00
2019-05-14T21:26:52.969Z,1.27
2019-05-14T21:29:23.949Z,1.30
2019-05-14T21:31:54.682Z,1.10
2019-05-14T21:34:25.344Z,1.13
2019-05-14T21:36:58.152Z,1.37
2019-05-14T21:39:28.724Z,1.30
2019-05-14T21:41:59.520Z,1.10
2019-05-14T21:44:30.344Z,1.30
2019-05-14T21:47:01.374Z,1.10
2019-05-14T21:49:32.093Z,0.90
2019-05-14T21:52:02.794Z,1.10
2019-05-14T21:54:33.728Z,1.10
2019-05-14T21:57:04.579Z,1.00
2019-05-14T21:59:35.375Z,1.10
2019-05-14T22:02:07.103Z,1.03
2019-05-14T22:04:38.511Z,0.90
2019-05-14T22:07:10.429Z,1.10
2019-05-14T22:09:41.393Z,1.00
2019-05-14T22:12:12.407Z,1.03
2019-05-14T22:14:43.118Z,1.00
2019-05-14T22:17:13.862Z,0.70
2019-05-14T22:19:44.652Z,1.10
2019-05-14T22:22:15.346Z,1.00
2019-05-14T22:24:46.103Z,1.07
2019-05-14T22:27:18.445Z,1.13
2019-05-14T22:29:49.633Z,1.00
2019-05-14T22:32:20.658Z,1.07
2019-05-14T22:34:52.340Z,1.10
2019-05-14T22:37:23.144Z,0.83
2019-05-14T22:39:53.925Z,1.07
2019-05-14T22:42:24.639Z,0.90
2019-05-14T22:44:58.135Z,0.97
2019-05-14T22:47:27.941Z,0.87
2019-05-14T22:49:59.181Z,0.83
2019-05-14T22:52:31.223Z,0.90
2019-05-14T22:55:02.697Z,1.10
2019-05-14T22:57:33.830Z,0.90
2019-05-14T23:00:05.087Z,1.00
2019-05-14T23:02:38.380Z,1.10
2019-05-14T23:05:10.127Z,1.00
2019-05-14T23:07:40.819Z,0.90
2019-05-14T23:10:11.791Z,1.00
2019-05-14T23:12:42.725Z,0.77
2019-05-14T23:15:14.050Z,1.30
2019-05-14T23:17:44.849Z,1.10
2019-05-14T23:20:15.746Z,1.00
2019-05-14T23:22:48.968Z,0.97
2019-05-14T23:25:18.861Z,0.90
2019-05-14T23:27:49.714Z,0.90
2019-05-14T23:30:30.651Z,0.90
2019-05-14T23:33:01.504Z,1.10
2019-05-14T23:35:32.498Z,0.87
2019-05-14T23:38:03.322Z,1.00
2019-05-14T23:40:34.413Z,1.07
2019-05-14T23:43:05.221Z,1.10
2019-05-14T23:45:38.030Z,1.03
2019-05-14T23:48:09.482Z,1.37
2019-05-14T23:50:40.344Z,1.10
2019-05-14T23:53:11.146Z,1.10
2019-05-14T23:55:41.763Z,1.20
2019-05-14T23:58:12.404Z,1.20
